Time;durP1;ratioP1;P1;durP2;ratioP2;P2;SDS_P1;SDS_P2;PMS_P1;PMS_P2;Temp;Humidity;BMP_temperature;BMP_pressure;BME280_temperature;BME280_humidity;BME280_pressure;Samples;Min_cycle;Max_cycle;Signal;HPM_P1;HPM_P2
2024/02/01 00:00:54;;;;;;;3.93;3.63;;;20.90;53.40;;;;;;5072459;28;20190;-70
2024/02/01 00:03:20;;;;;;;4.03;3.40;;;20.90;53.50;;;;;;5072804;28;20638;-72
2024/02/01 00:05:45;;;;;;;4.40;3.60;;;20.90;53.50;;;;;;5072413;28;20606;-70
2024/02/01 00:08:11;;;;;;;3.57;2.93;;;20.90;53.50;;;;;;5054297;28;20185;-72
2024/02/01 00:10:36;;;;;;;4.67;3.47;;;20.90;53.50;;;;;;5072376;28;20206;-70
2024/02/01 00:13:02;;;;;;;4.33;3.00;;;20.90;53.50;;;;;;5072266;28;20166;-71
2024/02/01 00:15:28;;;;;;;4.20;3.43;;;20.90;53.50;;;;;;5072328;28;20572;-70
2024/02/01 00:17:54;;;;;;;3.27;2.77;;;20.90;53.50;;;;;;5072163;28;20459;-71
2024/02/01 00:20:20;;;;;;;4.07;3.10;;;20.90;53.50;;;;;;5072054;28;20433;-72
2024/02/01 00:22:45;;;;;;;3.90;3.47;;;20.90;53.50;;;;;;5072192;28;20194;-70
2024/02/01 00:25:11;;;;;;;3.57;3.27;;;20.90;53.50;;;;;;5072062;28;20544;-71
2024/02/01 00:27:36;;;;;;;4.50;3.50;;;20.90;53.50;;;;;;5053929;28;20269;-70
2024/02/01 00:30:03;;;;;;;4.50;3.70;;;20.90;53.50;;;;;;5071881;28;20194;-71
2024/02/01 00:32:31;;;;;;;4.73;4.20;;;20.90;53.50;;;;;;5071889;28;20170;-71
2024/02/01 00:34:57;;;;;;;3.60;3.17;;;20.80;53.40;;;;;;5053829;28;20416;-71
2024/02/01 00:37:22;;;;;;;3.93;3.27;;;20.80;53.50;;;;;;5071562;28;20448;-71
2024/02/01 00:39:48;;;;;;;4.30;3.60;;;20.80;53.40;;;;;;5071632;28;20258;-71
2024/02/01 00:42:13;;;;;;;3.93;3.10;;;20.80;53.50;;;;;;5071692;28;20708;-70
2024/02/01 00:44:39;;;;;;;4.70;4.30;;;20.80;53.40;;;;;;5071652;28;20224;-70
2024/02/01 00:47:07;;;;;;;5.03;3.70;;;20.80;53.50;;;;;;5053616;28;20561;-72
2024/02/01 00:49:32;;;;;;;4.60;3.77;;;20.80;53.40;;;;;;5071570;28;20217;-70
2024/02/01 00:51:58;;;;;;;3.47;3.03;;;20.80;53.50;;;;;;5071453;28;20471;-71
2024/02/01 00:54:24;;;;;;;4.23;3.60;;;20.80;53.50;;;;;;5071436;28;20227;-71
2024/02/01 00:56:49;;;;;;;3.40;3.10;;;20.80;53.40;;;;;;5053426;28;20189;-72
2024/02/01 00:59:15;;;;;;;3.90;2.93;;;20.80;53.40;;;;;;5071270;28;20181;-71
2024/02/01 01:01:41;;;;;;;4.07;3.20;;;20.80;53.50;;;;;;5071214;28;20676;-71
2024/02/01 01:04:06;;;;;;;3.10;2.73;;;20.80;53.50;;;;;;5071303;28;20198;-71
2024/02/01 01:06:32;;;;;;;4.47;3.80;;;20.80;53.40;;;;;;5071153;28;20177;-72
2024/02/01 01:08:58;;;;;;;3.67;3.30;;;20.80;53.50;;;;;;5071277;28;20250;-71
2024/02/01 01:11:25;;;;;;;3.63;3.10;;;20.80;54.00;;;;;;5071277;28;20190;-71
2024/02/01 01:13:51;;;;;;;3.60;3.20;;;20.80;53.50;;;;;;5070980;28;20401;-71
2024/02/01 01:16:17;;;;;;;2.67;2.47;;;20.80;53.50;;;;;;5070855;28;20511;-71
2024/02/01 01:18:43;;;;;;;4.60;3.33;;;20.80;53.40;;;;;;5070914;28;20550;-71
2024/02/01 01:21:08;;;;;;;4.57;3.27;;;20.80;53.50;;;;;;5070772;28;20186;-71
2024/02/01 01:23:34;;;;;;;3.70;3.23;;;20.80;53.50;;;;;;5070845;28;20248;-71
2024/02/01 01:26:00;;;;;;;4.30;3.50;;;20.80;53.40;;;;;;5070841;28;20546;-71
2024/02/01 01:28:26;;;;;;;3.37;3.07;;;20.80;53.50;;;;;;5070725;28;20167;-71
2024/02/01 01:30:51;;;;;;;3.43;3.10;;;20.80;53.50;;;;;;5070667;28;20802;-72
2024/02/01 01:33:17;;;;;;;4.33;3.57;;;20.80;53.50;;;;;;5052665;28;20181;-70
2024/02/01 01:35:42;;;;;;;3.80;3.07;;;20.80;53.50;;;;;;5070583;28;20280;-70
2024/02/01 01:38:08;;;;;;;3.77;3.17;;;20.80;53.50;;;;;;5070472;28;20194;-71
2024/02/01 01:40:33;;;;;;;3.97;3.50;;;20.80;53.50;;;;;;5070497;28;20569;-70
2024/02/01 01:42:59;;;;;;;3.43;3.07;;;20.80;53.50;;;;;;5070509;28;20182;-71
2024/02/01 01:45:24;;;;;;;3.17;2.87;;;20.80;53.50;;;;;;5070492;28;20178;-71
2024/02/01 01:47:50;;;;;;;4.03;3.60;;;20.80;53.50;;;;;;5069791;28;20198;-71
2024/02/01 01:50:16;;;;;;;3.97;3.10;;;20.80;53.50;;;;;;5070368;28;20244;-70
2024/02/01 01:52:44;;;;;;;4.30;3.90;;;20.80;53.50;;;;;;5070354;28;20171;-71
2024/02/01 01:55:10;;;;;;;3.63;3.30;;;20.80;53.50;;;;;;5052790;28;20703;-71
2024/02/01 01:57:36;;;;;;;3.50;3.20;;;20.80;53.50;;;;;;5070255;28;20448;-71
2024/02/01 02:00:04;;;;;;;3.33;3.03;;;20.80;53.50;;;;;;5070203;28;20431;-72
2024/02/01 02:02:32;;;;;;;4.00;3.30;;;20.80;53.50;;;;;;5070363;28;20166;-71
2024/02/01 02:04:58;;;;;;;3.40;3.07;;;20.80;53.50;;;;;;5070357;28;20436;-72
2024/02/01 02:07:24;;;;;;;3.30;3.00;;;20.80;53.50;;;;;;5070145;28;20773;-71
2024/02/01 02:09:49;;;;;;;3.30;3.00;;;20.80;53.50;;;;;;5070173;28;20409;-70
2024/02/01 02:12:15;;;;;;;4.43;3.10;;;20.80;53.50;;;;;;5070193;28;20181;-71
2024/02/01 02:14:41;;;;;;;4.20;3.80;;;20.80;53.50;;;;;;5070103;28;20303;-71
2024/02/01 02:17:06;;;;;;;3.30;2.73;;;20.70;53.40;;;;;;5069921;28;20586;-71
2024/02/01 02:19:33;;;;;;;4.37;3.67;;;20.70;53.40;;;;;;5070284;28;20268;-71
2024/02/01 02:21:59;;;;;;;3.87;3.23;;;20.70;53.40;;;;;;5051883;28;20464;-69
2024/02/01 02:24:25;;;;;;;2.97;2.63;;;20.70;53.40;;;;;;5070073;28;20174;-70
2024/02/01 02:26:50;;;;;;;4.33;2.60;;;20.80;53.50;;;;;;5070144;28;20178;-73
2024/02/01 02:29:17;;;;;;;3.40;2.90;;;20.80;53.50;;;;;;5070308;28;20184;-72
2024/02/01 02:31:46;;;;;;;4.53;3.17;;;20.70;53.40;;;;;;5069944;28;20244;-70
2024/02/01 02:34:12;;;;;;;3.50;3.00;;;20.80;53.50;;;;;;5069863;28;20453;-71
2024/02/01 02:36:38;;;;;;;4.57;3.23;;;20.70;53.40;;;;;;5051826;28;20831;-70
2024/02/01 02:39:04;;;;;;;3.90;3.50;;;20.80;53.50;;;;;;5069873;28;20460;-70
2024/02/01 02:41:29;;;;;;;3.47;3.17;;;20.70;53.40;;;;;;5069786;28;20205;-71
2024/02/01 02:43:56;;;;;;;3.90;3.47;;;20.70;53.50;;;;;;5069800;28;20404;-71
2024/02/01 02:46:25;;;;;;;4.50;3.63;;;20.70;53.40;;;;;;5069878;28;20209;-71
2024/02/01 02:48:51;;;;;;;3.20;2.50;;;20.70;53.40;;;;;;5069904;28;20517;-70
2024/02/01 02:51:16;;;;;;;3.27;2.97;;;20.70;53.40;;;;;;5069777;28;20543;-71
2024/02/01 02:53:42;;;;;;;3.63;2.60;;;20.70;53.40;;;;;;5069842;28;20412;-72
2024/02/01 02:56:08;;;;;;;3.30;3.00;;;20.70;53.40;;;;;;5070016;28;20170;-71
2024/02/01 02:58:38;;;;;;;3.40;3.10;;;20.80;53.50;;;;;;5070037;28;20217;-71
2024/02/01 03:01:08;;;;;;;3.67;3.17;;;20.70;54.00;;;;;;5073605;28;20424;-71
2024/02/01 03:03:40;;;;;;;3.20;2.87;;;20.70;53.40;;;;;;5073676;28;20500;-71
2024/02/01 03:06:09;;;;;;;4.43;3.50;;;20.70;53.40;;;;;;5073619;28;20385;-71
2024/02/01 03:08:39;;;;;;;4.77;3.43;;;20.70;53.40;;;;;;5073604;28;20416;-71
2024/02/01 03:11:10;;;;;;;4.00;3.23;;;20.70;53.50;;;;;;5073339;28;20436;-70
2024/02/01 03:13:37;;;;;;;3.40;2.93;;;20.70;53.50;;;;;;5073627;28;20431;-70
2024/02/01 03:16:04;;;;;;;3.47;3.03;;;20.70;53.40;;;;;;5073356;28;20851;-70
2024/02/01 03:18:30;;;;;;;4.20;2.87;;;20.70;53.50;;;;;;5073478;28;20460;-71
2024/02/01 03:20:56;;;;;;;3.90;2.57;;;20.70;53.40;;;;;;5073148;28;20432;-71
2024/02/01 03:23:21;;;;;;;3.20;2.60;;;20.70;53.50;;;;;;5073243;28;20162;-72
2024/02/01 03:25:50;;;;;;;3.97;3.27;;;20.70;53.40;;;;;;5073300;28;20400;-72
2024/02/01 03:28:16;;;;;;;3.40;2.93;;;20.70;53.40;;;;;;5073149;28;20185;-71
2024/02/01 03:30:46;;;;;;;3.30;3.00;;;20.70;53.50;;;;;;5073086;28;20436;-70
2024/02/01 03:33:13;;;;;;;3.77;2.90;;;20.70;53.50;;;;;;5073471;28;20530;-70
2024/02/01 03:35:39;;;;;;;2.80;2.50;;;20.70;53.50;;;;;;5073069;28;20412;-71
2024/02/01 03:38:05;;;;;;;3.90;2.80;;;20.70;53.50;;;;;;5054910;28;20513;-70
2024/02/01 03:40:31;;;;;;;3.70;3.17;;;20.70;53.50;;;;;;5072845;28;21021;-71
2024/02/01 03:42:57;;;;;;;2.87;2.40;;;20.70;53.50;;;;;;5073269;28;20170;-71
2024/02/01 03:45:22;;;;;;;3.13;2.80;;;20.70;53.50;;;;;;5072914;28;20929;-70
2024/02/01 03:47:48;;;;;;;2.97;2.70;;;20.70;53.40;;;;;;5054715;28;20201;-70
2024/02/01 03:50:14;;;;;;;3.30;3.00;;;20.70;53.40;;;;;;5072760;28;20194;-71
2024/02/01 03:52:43;;;;;;;3.67;2.93;;;20.70;53.50;;;;;;5072782;28;20180;-70
2024/02/01 03:55:18;;;;;;;3.20;2.90;;;20.70;53.50;;;;;;5073050;28;20546;-71
2024/02/01 03:57:45;;;;;;;3.70;2.53;;;20.70;53.50;;;;;;5072558;28;20439;-71
2024/02/01 04:00:24;;;;;;;3.20;2.70;;;20.70;53.50;;;;;;5072543;28;21267;-71
2024/02/01 04:02:56;;;;;;;3.30;3.00;;;20.70;53.50;;;;;;5072600;28;20389;-71
2024/02/01 04:05:22;;;;;;;3.00;2.57;;;20.70;53.50;;;;;;5072514;28;20415;-72
2024/02/01 04:07:47;;;;;;;3.60;2.40;;;20.60;53.40;;;;;;5072380;28;20451;-71
2024/02/01 04:10:13;;;;;;;4.87;3.00;;;20.70;53.50;;;;;;5071960;28;20467;-71
2024/02/01 04:12:39;;;;;;;3.17;2.87;;;20.60;53.40;;;;;;5072420;28;20314;-70
2024/02/01 04:15:05;;;;;;;3.23;2.93;;;20.60;53.40;;;;;;5072333;28;20171;-69
2024/02/01 04:17:31;;;;;;;3.10;2.47;;;20.70;53.50;;;;;;5072135;28;20206;-71
2024/02/01 04:19:56;;;;;;;2.50;2.30;;;20.70;53.50;;;;;;5072147;28;20423;-71
2024/02/01 04:22:22;;;;;;;2.90;2.60;;;20.60;53.50;;;;;;5072179;28;20532;-70
2024/02/01 04:24:48;;;;;;;3.30;2.50;;;20.60;53.40;;;;;;5072145;28;20177;-70
2024/02/01 04:27:14;;;;;;;3.30;3.00;;;20.70;53.50;;;;;;5072146;28;20174;-69
2024/02/01 04:29:39;;;;;;;3.10;2.67;;;20.70;53.50;;;;;;5071977;28;20182;-69
2024/02/01 04:32:05;;;;;;;2.93;2.37;;;20.70;53.50;;;;;;5071990;28;20212;-71
2024/02/01 04:34:34;;;;;;;3.33;2.37;;;20.60;53.40;;;;;;5072148;28;20182;-71
2024/02/01 04:36:59;;;;;;;3.37;3.07;;;20.60;53.50;;;;;;5071762;28;20412;-71
2024/02/01 04:39:25;;;;;;;2.60;2.40;;;20.60;53.40;;;;;;5071879;28;20413;-71
2024/02/01 04:41:53;;;;;;;4.73;2.60;;;20.60;53.50;;;;;;5071631;28;20628;-72
2024/02/01 04:44:20;;;;;;;3.20;2.30;;;20.70;53.50;;;;;;5071735;28;20174;-71
2024/02/01 04:46:46;;;;;;;2.93;2.60;;;20.70;53.50;;;;;;5071700;28;20420;-71
2024/02/01 04:49:11;;;;;;;3.37;2.67;;;20.60;53.40;;;;;;5071670;28;20470;-71
2024/02/01 04:51:41;;;;;;;3.03;2.70;;;20.60;53.40;;;;;;5071599;28;20234;-71
2024/02/01 04:54:06;;;;;;;3.27;2.70;;;20.60;53.40;;;;;;5071576;28;20178;-71
2024/02/01 04:56:33;;;;;;;3.33;2.53;;;20.60;53.40;;;;;;5071433;28;20976;-71
2024/02/01 04:58:59;;;;;;;3.20;2.90;;;20.60;53.40;;;;;;5071580;28;20229;-71
2024/02/01 05:01:25;;;;;;;3.20;2.63;;;20.60;53.40;;;;;;5071280;28;20467;-71
2024/02/01 05:03:50;;;;;;;3.20;2.90;;;20.70;53.50;;;;;;5071383;28;20174;-72
2024/02/01 05:06:20;;;;;;;3.20;2.80;;;20.60;53.40;;;;;;5071330;28;20642;-71
2024/02/01 05:08:45;;;;;;;3.03;2.63;;;20.70;54.00;;;;;;5071211;28;20232;-72
2024/02/01 05:11:11;;;;;;;3.60;2.50;;;20.60;53.40;;;;;;5053055;28;20440;-71
2024/02/01 05:13:37;;;;;;;3.50;3.20;;;20.70;53.50;;;;;;5071166;28;20721;-71
2024/02/01 05:16:03;;;;;;;3.03;2.40;;;20.70;53.50;;;;;;5070902;28;20233;-70
2024/02/01 05:18:29;;;;;;;2.53;2.27;;;20.70;53.50;;;;;;5071003;28;20473;-71
2024/02/01 05:20:55;;;;;;;3.73;2.90;;;20.70;53.50;;;;;;5052945;28;20440;-71
2024/02/01 05:23:21;;;;;;;3.50;3.03;;;20.70;53.50;;;;;;5069997;28;20249;-71
2024/02/01 05:25:47;;;;;;;2.73;2.53;;;20.70;53.50;;;;;;5070817;28;20420;-72
2024/02/01 05:28:13;;;;;;;2.33;2.10;;;20.70;53.50;;;;;;5071165;28;20941;-71
2024/02/01 05:30:44;;;;;;;3.80;2.73;;;20.70;53.50;;;;;;5070709;28;20272;-72
2024/02/01 05:33:10;;;;;;;3.10;2.47;;;20.70;53.50;;;;;;5070708;28;20184;-71
2024/02/01 05:35:36;;;;;;;3.03;2.73;;;20.70;53.50;;;;;;5070675;28;20408;-71
2024/02/01 05:38:05;;;;;;;2.80;2.20;;;20.70;53.50;;;;;;5070575;28;20272;-71
2024/02/01 05:40:32;;;;;;;2.93;2.60;;;20.70;53.40;;;;;;5070541;28;20206;-71
2024/02/01 05:42:57;;;;;;;2.53;2.10;;;20.70;53.50;;;;;;5070556;28;20971;-69
2024/02/01 05:45:27;;;;;;;3.77;3.10;;;20.70;53.40;;;;;;5070513;28;20492;-71
2024/02/01 05:47:56;;;;;;;2.90;2.67;;;20.70;53.40;;;;;;5070493;28;20420;-71
2024/02/01 05:50:21;;;;;;;3.23;2.67;;;20.70;53.40;;;;;;5070406;28;20447;-71
2024/02/01 05:52:47;;;;;;;2.50;2.10;;;20.70;53.40;;;;;;5070388;28;20412;-71
2024/02/01 05:55:16;;;;;;;2.90;2.60;;;20.70;53.40;;;;;;5070430;28;20185;-69
2024/02/01 05:57:41;;;;;;;2.80;2.40;;;20.70;53.40;;;;;;5070281;28;20194;-72
2024/02/01 06:00:11;;;;;;;2.90;2.40;;;20.70;53.40;;;;;;5070354;28;20440;-70
2024/02/01 06:02:37;;;;;;;3.43;2.77;;;20.70;53.40;;;;;;5052108;28;20182;-71
2024/02/01 06:05:05;;;;;;;3.10;2.80;;;20.70;53.40;;;;;;5070106;28;20554;-71
2024/02/01 06:07:30;;;;;;;3.00;2.50;;;20.70;53.40;;;;;;5070141;28;20197;-69
2024/02/01 06:09:56;;;;;;;2.80;2.30;;;20.80;53.50;;;;;;5070190;28;20408;-71
2024/02/01 06:12:22;;;;;;;2.87;2.60;;;20.70;53.40;;;;;;5070232;28;20174;-71
2024/02/01 06:14:47;;;;;;;2.57;2.37;;;20.70;53.40;;;;;;5052297;28;20428;-72
2024/02/01 06:17:13;;;;;;;3.20;2.80;;;20.70;53.40;;;;;;5069913;28;20690;-71
2024/02/01 06:19:40;;;;;;;3.07;2.43;;;20.70;53.40;;;;;;5069985;28;20174;-71
2024/02/01 06:22:06;;;;;;;2.93;2.40;;;20.70;53.40;;;;;;5070038;28;20243;-71
2024/02/01 06:24:35;;;;;;;2.50;2.10;;;20.70;53.40;;;;;;5070022;28;20444;-72
2024/02/01 06:27:01;;;;;;;3.33;2.30;;;20.80;53.50;;;;;;5070035;28;20564;-71
2024/02/01 06:29:27;;;;;;;3.10;2.37;;;20.80;54.00;;;;;;5069847;28;20409;-71
2024/02/01 06:31:52;;;;;;;3.00;2.23;;;20.80;53.40;;;;;;5051800;28;20524;-71
2024/02/01 06:34:26;;;;;;;2.63;2.43;;;20.80;53.40;;;;;;5071419;28;20668;-71
2024/02/01 06:36:58;;;;;;;3.60;2.70;;;20.80;53.40;;;;;;5073966;28;20150;-71
2024/02/01 06:44:28;;;;;;;2.87;2.23;;;20.90;53.50;;;;;;5074140;28;20427;-71
2024/02/01 06:50:15;;;;;;;3.07;2.37;;;20.90;53.50;;;;;;5073575;28;20412;-71
2024/02/01 06:58:03;;;;;;;4.47;2.30;;;20.90;53.40;;;;;;5073582;28;20577;-69
2024/02/01 07:03:13;;;;;;;3.80;2.23;;;20.90;53.40;;;;;;5080558;28;20434;-71
2024/02/01 07:16:21;;;;;;;2.07;1.87;;;21.00;53.50;;;;;;5093801;28;20447;-71
2024/02/01 07:22:06;;;;;;;2.23;1.90;;;21.10;53.50;;;;;;5093458;28;20477;-71
2024/02/01 08:00:17;;;;;;;2.70;2.13;;;21.10;53.50;;;;;;5093005;28;20472;-71
2024/02/01 08:08:16;;;;;;;2.37;1.93;;;21.10;53.50;;;;;;5093205;28;21052;-69
2024/02/01 08:10:44;;;;;;;3.27;2.30;;;21.10;54.00;;;;;;5092629;28;20466;-71
2024/02/01 08:13:12;;;;;;;2.10;1.80;;;21.10;53.50;;;;;;5092687;28;20420;-70
2024/02/01 08:15:42;;;;;;;2.70;2.20;;;21.10;53.40;;;;;;5092583;28;20442;-70
2024/02/01 08:18:11;;;;;;;2.23;2.03;;;21.10;53.40;;;;;;5092839;28;20460;-71
2024/02/01 08:20:40;;;;;;;7.00;2.10;;;21.10;53.40;;;;;;5092414;28;20430;-70
2024/02/01 08:23:13;;;;;;;2.20;1.90;;;21.20;53.50;;;;;;5092423;28;20406;-70
2024/02/01 08:25:40;;;;;;;4.10;2.00;;;21.20;53.50;;;;;;5092436;28;20483;-70
2024/02/01 08:28:08;;;;;;;2.50;2.00;;;21.20;53.50;;;;;;5092533;28;20487;-71
2024/02/01 08:30:34;;;;;;;2.37;2.03;;;21.20;53.50;;;;;;5092353;28;20436;-68
2024/02/01 08:33:03;;;;;;;3.10;2.27;;;21.20;53.50;;;;;;5092176;28;21047;-71
2024/02/01 08:35:34;;;;;;;2.80;2.30;;;21.20;53.50;;;;;;5092271;28;20178;-69
2024/02/01 08:38:04;;;;;;;3.07;2.10;;;21.20;53.50;;;;;;5092125;28;20492;-70
2024/02/01 08:40:30;;;;;;;2.47;2.13;;;21.20;53.50;;;;;;5092108;28;20431;-70
2024/02/01 08:43:00;;;;;;;2.50;2.00;;;21.20;53.50;;;;;;5092078;28;20407;-70
2024/02/01 08:45:30;;;;;;;2.10;1.70;;;21.20;53.50;;;;;;5092091;28;20412;-69
2024/02/01 08:48:02;;;;;;;2.90;1.97;;;21.20;53.50;;;;;;5074435;28;20457;-71
2024/02/01 08:50:34;;;;;;;2.33;2.10;;;21.20;53.50;;;;;;5092069;28;20435;-71
2024/02/01 08:53:00;;;;;;;4.17;2.43;;;21.20;53.50;;;;;;5091863;28;20916;-71
2024/02/01 08:55:27;;;;;;;2.40;2.20;;;21.20;53.50;;;;;;5091894;28;20917;-70
2024/02/01 08:57:54;;;;;;;2.23;1.87;;;21.20;53.50;;;;;;5091739;28;20508;-68
2024/02/01 09:00:26;;;;;;;2.20;2.03;;;21.20;53.50;;;;;;5091673;28;20635;-71
2024/02/01 09:03:03;;;;;;;1.93;1.70;;;21.20;53.60;;;;;;5091978;28;20380;-71
2024/02/01 09:05:49;;;;;;;3.07;2.00;;;21.20;53.60;;;;;;5091705;28;20886;-70
2024/02/01 09:08:16;;;;;;;2.77;2.20;;;21.20;53.50;;;;;;5091445;28;20419;-71
2024/02/01 09:10:57;;;;;;;3.07;2.77;;;21.20;53.60;;;;;;5091461;28;20443;-69
2024/02/01 09:13:25;;;;;;;3.00;1.80;;;21.20;53.50;;;;;;5091752;28;20457;-69
2024/02/01 09:15:52;;;;;;;4.30;2.20;;;21.20;53.60;;;;;;5091540;28;20450;-69
2024/02/01 09:18:18;;;;;;;5.87;2.10;;;21.20;53.60;;;;;;5091875;28;20463;-70
2024/02/01 09:20:44;;;;;;;2.10;1.90;;;21.20;53.50;;;;;;5091546;28;20436;-70
2024/02/01 09:23:11;;;;;;;3.23;2.30;;;21.20;53.50;;;;;;5091353;28;20411;-71
2024/02/01 09:25:37;;;;;;;5.70;2.30;;;21.20;53.50;;;;;;5091722;28;20830;-70
2024/02/01 09:28:11;;;;;;;4.07;2.20;;;21.20;53.50;;;;;;5091461;28;20521;-70
2024/02/01 09:30:47;;;;;;;2.13;1.67;;;21.20;53.50;;;;;;5091338;28;20442;-70
2024/02/01 09:33:17;;;;;;;3.93;2.33;;;21.20;53.50;;;;;;5091292;28;20402;-69
2024/02/01 09:35:44;;;;;;;2.50;1.87;;;21.20;53.50;;;;;;5091077;28;20444;-70
2024/02/01 09:38:10;;;;;;;2.90;2.00;;;21.20;53.50;;;;;;5090929;28;20459;-70
2024/02/01 09:40:41;;;;;;;3.97;2.27;;;21.20;54.10;;;;;;5091067;28;20523;-70
2024/02/01 09:43:17;;;;;;;2.37;1.80;;;21.20;53.60;;;;;;5091078;28;20182;-70
2024/02/01 09:45:43;;;;;;;2.30;2.10;;;21.20;53.50;;;;;;5090973;28;20901;-69
2024/02/01 09:48:16;;;;;;;2.80;2.30;;;21.20;53.60;;;;;;5091175;28;20493;-70
2024/02/01 09:50:53;;;;;;;4.17;2.50;;;21.20;53.60;;;;;;5090774;28;20519;-71
2024/02/01 09:53:21;;;;;;;3.07;2.03;;;21.20;53.60;;;;;;5090942;28;20418;-71
2024/02/01 09:55:47;;;;;;;3.03;2.03;;;21.20;53.60;;;;;;5090843;28;20415;-70
2024/02/01 09:58:13;;;;;;;2.63;2.40;;;21.30;53.70;;;;;;5091030;28;20491;-70
2024/02/01 10:00:39;;;;;;;4.50;2.30;;;21.20;53.70;;;;;;5090754;28;20455;-70
2024/02/01 10:03:05;;;;;;;2.47;1.90;;;21.20;53.70;;;;;;5090763;28;20652;-70
2024/02/01 10:05:32;;;;;;;1.90;1.63;;;21.20;53.70;;;;;;5090584;28;20411;-70
2024/02/01 10:07:59;;;;;;;3.00;1.93;;;21.20;53.80;;;;;;5090794;28;20174;-70
2024/02/01 10:10:25;;;;;;;2.33;2.00;;;21.20;53.80;;;;;;5090063;28;20431;-71
2024/02/01 10:12:58;;;;;;;3.07;1.97;;;21.20;53.90;;;;;;5090574;28;20418;-71
2024/02/01 10:15:30;;;;;;;2.40;1.60;;;21.20;53.80;;;;;;5090325;28;20392;-70
2024/02/01 10:17:57;;;;;;;2.70;2.00;;;21.20;53.80;;;;;;5090438;28;20451;-71
2024/02/01 10:20:39;;;;;;;2.53;1.83;;;21.20;53.80;;;;;;5090358;28;20435;-69
2024/02/01 10:23:07;;;;;;;2.27;1.83;;;21.20;53.90;;;;;;5090375;28;20384;-71
2024/02/01 10:25:34;;;;;;;3.13;1.97;;;21.20;53.90;;;;;;5090137;28;20408;-70
2024/02/01 10:28:04;;;;;;;2.30;1.83;;;21.20;53.90;;;;;;5090267;28;20427;-70
2024/02/01 10:30:31;;;;;;;3.70;1.93;;;21.20;53.90;;;;;;5072059;28;20440;-70
2024/02/01 10:33:03;;;;;;;2.23;2.03;;;21.20;54.00;;;;;;5090219;28;20411;-70
2024/02/01 10:35:31;;;;;;;2.27;1.73;;;21.20;54.00;;;;;;5090249;28;20446;-70
2024/02/01 10:37:59;;;;;;;2.10;1.57;;;21.20;54.00;;;;;;5090340;28;20490;-70
2024/02/01 10:40:29;;;;;;;2.70;1.77;;;21.20;54.00;;;;;;5090094;28;20438;-70
2024/02/01 10:43:00;;;;;;;2.13;1.93;;;21.20;54.00;;;;;;5090065;28;20498;-70
2024/02/01 10:45:31;;;;;;;3.33;2.10;;;21.20;54.00;;;;;;5090102;28;20408;-70
2024/02/01 10:48:07;;;;;;;2.50;2.10;;;21.20;54.00;;;;;;5090114;28;20533;-70
2024/02/01 10:50:36;;;;;;;2.83;2.10;;;21.20;54.00;;;;;;5089997;28;20427;-69
2024/02/01 10:53:03;;;;;;;2.27;1.70;;;21.20;54.10;;;;;;5090018;28;20433;-70
2024/02/01 10:55:29;;;;;;;2.13;1.73;;;21.20;54.10;;;;;;5089990;28;20412;-71
2024/02/01 10:57:59;;;;;;;1.77;1.47;;;21.20;54.10;;;;;;5089936;28;20459;-70
2024/02/01 11:00:27;;;;;;;2.37;1.63;;;21.20;54.10;;;;;;5090622;28;20192;-69
2024/02/01 11:02:55;;;;;;;2.20;1.80;;;21.20;54.10;;;;;;5090092;28;20400;-70
2024/02/01 11:05:29;;;;;;;2.70;2.23;;;21.20;54.10;;;;;;5089795;28;20430;-71
2024/02/01 11:07:55;;;;;;;3.57;1.73;;;21.20;54.10;;;;;;5089839;28;20427;-70
2024/02/01 11:10:23;;;;;;;2.13;1.73;;;21.20;54.10;;;;;;5090027;28;20508;-70
2024/02/01 11:12:55;;;;;;;4.00;2.10;;;21.20;54.10;;;;;;5089858;28;20185;-70
2024/02/01 11:15:24;;;;;;;2.20;1.60;;;21.20;54.70;;;;;;5086858;28;20413;-70
2024/02/01 11:17:50;;;;;;;2.43;1.40;;;21.20;54.10;;;;;;5060414;28;20462;-70
2024/02/01 11:20:23;;;;;;;3.43;2.03;;;21.20;54.20;;;;;;5081463;28;20419;-70
2024/02/01 11:22:59;;;;;;;3.43;2.10;;;21.20;54.20;;;;;;5083717;28;20415;-71
2024/02/01 11:25:28;;;;;;;2.07;1.60;;;21.20;54.20;;;;;;5083137;28;20530;-71
2024/02/01 11:27:54;;;;;;;2.40;1.87;;;21.20;54.20;;;;;;5081718;28;20416;-71
2024/02/01 11:30:28;;;;;;;3.07;1.83;;;21.20;54.20;;;;;;5083520;28;20438;-71
2024/02/01 11:32:54;;;;;;;2.50;1.60;;;21.20;54.20;;;;;;5083892;28;20252;-71
2024/02/01 11:35:22;;;;;;;2.43;1.87;;;21.20;54.20;;;;;;5082247;28;20408;-70
2024/02/01 11:38:01;;;;;;;2.27;1.70;;;21.20;54.20;;;;;;5082343;28;20820;-70
2024/02/01 11:40:27;;;;;;;3.40;1.60;;;21.20;54.20;;;;;;5083997;28;20514;-70
2024/02/01 11:42:53;;;;;;;2.60;2.20;;;21.20;54.20;;;;;;5083904;28;20403;-69
2024/02/01 11:45:19;;;;;;;3.00;1.53;;;21.20;54.20;;;;;;5081740;28;20896;-70
2024/02/01 11:47:45;;;;;;;1.80;1.53;;;21.20;54.20;;;;;;5082693;28;20181;-69
2024/02/01 11:50:11;;;;;;;3.00;2.00;;;21.20;54.20;;;;;;5083298;28;20190;-70
2024/02/01 11:52:58;;;;;;;1.90;1.67;;;21.20;54.20;;;;;;5081645;28;20805;-70
2024/02/01 11:55:29;;;;;;;2.10;1.63;;;21.20;54.20;;;;;;5082435;28;20412;-70
2024/02/01 11:57:57;;;;;;;2.63;1.80;;;21.20;54.20;;;;;;5081355;28;20558;-71
2024/02/01 12:00:24;;;;;;;1.83;1.50;;;21.20;54.20;;;;;;5082487;28;20428;-70
2024/02/01 12:02:49;;;;;;;2.17;1.97;;;21.20;54.20;;;;;;5064770;28;20416;-71
2024/02/01 12:05:23;;;;;;;2.57;1.83;;;21.20;54.20;;;;;;5081242;28;20499;-70
2024/02/01 12:07:49;;;;;;;2.10;1.60;;;21.20;54.20;;;;;;5081571;28;20189;-70
2024/02/01 12:10:17;;;;;;;2.53;1.93;;;21.20;54.20;;;;;;5084691;28;20954;-69
2024/02/01 12:12:44;;;;;;;1.90;1.43;;;21.20;54.20;;;;;;5086816;28;20640;-71
2024/02/01 12:15:17;;;;;;;2.83;1.90;;;21.20;54.20;;;;;;5074194;28;20446;-70
2024/02/01 12:17:45;;;;;;;2.00;1.40;;;21.20;54.20;;;;;;5091877;28;20455;-71
2024/02/01 12:20:12;;;;;;;2.50;1.87;;;21.20;54.20;;;;;;5092303;28;20420;-69
2024/02/01 12:22:38;;;;;;;1.83;1.73;;;21.20;54.20;;;;;;5092386;28;20415;-70
2024/02/01 12:25:11;;;;;;;1.80;1.37;;;21.10;54.10;;;;;;5092312;28;20400;-70
2024/02/01 12:27:36;;;;;;;2.20;1.70;;;21.20;54.20;;;;;;5091450;28;20184;-70
2024/02/01 12:30:11;;;;;;;2.23;1.67;;;21.10;54.10;;;;;;5092313;28;20423;-70
2024/02/01 12:32:43;;;;;;;3.57;1.97;;;21.20;54.80;;;;;;5091976;28;20467;-71
2024/02/01 12:35:14;;;;;;;2.43;1.77;;;21.20;54.20;;;;;;5092464;28;20822;-70
2024/02/01 12:37:43;;;;;;;2.53;1.50;;;21.10;54.10;;;;;;5073772;28;21030;-70
2024/02/01 12:40:12;;;;;;;2.50;1.73;;;21.20;54.20;;;;;;5092058;28;20887;-69
2024/02/01 12:42:39;;;;;;;2.33;1.80;;;21.10;54.10;;;;;;5092036;28;20408;-70
2024/02/01 12:45:17;;;;;;;2.07;1.50;;;21.10;54.10;;;;;;5092179;28;20411;-71
2024/02/01 12:47:47;;;;;;;1.50;1.40;;;21.20;54.20;;;;;;5091938;28;20479;-71
2024/02/01 12:50:15;;;;;;;1.70;1.50;;;21.10;54.20;;;;;;5091922;28;20430;-71
2024/02/01 12:52:42;;;;;;;2.70;1.57;;;21.20;54.30;;;;;;5091900;28;20546;-70
2024/02/01 12:55:08;;;;;;;2.30;1.90;;;21.20;54.30;;;;;;5091957;28;20454;-69
2024/02/01 12:57:34;;;;;;;2.00;1.60;;;21.10;54.20;;;;;;5091906;28;20455;-71
2024/02/01 13:00:00;;;;;;;1.70;1.40;;;21.10;54.20;;;;;;5092030;28;20467;-71
2024/02/01 13:02:27;;;;;;;2.30;1.87;;;21.10;54.20;;;;;;5091665;28;20762;-71
2024/02/01 13:04:56;;;;;;;1.67;1.57;;;21.10;54.20;;;;;;5091611;28;20407;-69
2024/02/01 13:07:22;;;;;;;2.30;1.50;;;21.20;54.30;;;;;;5081387;28;20797;-68
2024/02/01 13:09:47;;;;;;;2.10;1.90;;;21.10;54.20;;;;;;5083852;28;20995;-71
2024/02/01 13:12:23;;;;;;;2.77;1.57;;;21.10;54.20;;;;;;5073101;28;20412;-71
2024/02/01 13:14:57;;;;;;;1.93;1.67;;;21.20;54.30;;;;;;5091457;28;20154;-70
2024/02/01 13:17:34;;;;;;;2.10;1.73;;;21.10;54.20;;;;;;5070930;28;20515;-70
2024/02/01 13:20:00;;;;;;;2.90;2.00;;;21.20;54.30;;;;;;5071077;28;20439;-70
2024/02/01 13:22:28;;;;;;;2.47;1.60;;;21.10;54.20;;;;;;5071178;28;20503;-70
2024/02/01 13:24:54;;;;;;;1.93;1.60;;;21.10;54.20;;;;;;5070974;28;20912;-70
2024/02/01 13:27:20;;;;;;;1.70;1.43;;;21.10;54.30;;;;;;5053052;28;20413;-70
2024/02/01 13:29:46;;;;;;;1.97;1.50;;;21.10;54.20;;;;;;5070835;28;20224;-70
2024/02/01 13:32:13;;;;;;;2.53;1.77;;;21.10;54.20;;;;;;5070779;28;20548;-70
2024/02/01 13:34:39;;;;;;;4.13;1.40;;;21.10;54.20;;;;;;5070789;28;20408;-70
2024/02/01 13:37:09;;;;;;;2.00;1.73;;;21.10;54.20;;;;;;5071076;28;20408;-69
2024/02/01 13:39:42;;;;;;;2.23;1.57;;;21.10;54.20;;;;;;5070694;28;20413;-69
2024/02/01 13:42:08;;;;;;;1.57;1.47;;;21.10;54.20;;;;;;5070669;28;20393;-70
2024/02/01 13:44:34;;;;;;;2.07;1.70;;;21.10;54.20;;;;;;5069825;28;20831;-69
2024/02/01 13:47:05;;;;;;;2.20;1.70;;;21.10;54.20;;;;;;5070746;28;20483;-70
2024/02/01 13:49:31;;;;;;;1.70;1.30;;;21.10;54.10;;;;;;5070642;28;20154;-70
2024/02/01 13:51:57;;;;;;;2.73;2.10;;;21.10;54.10;;;;;;5070504;28;20435;-70
2024/02/01 13:54:23;;;;;;;1.60;1.50;;;21.10;54.10;;;;;;5070528;28;20174;-68
2024/02/01 13:56:48;;;;;;;2.10;1.90;;;21.10;54.10;;;;;;5070458;28;20684;-70
2024/02/01 13:59:14;;;;;;;2.30;1.53;;;21.10;54.10;;;;;;5070342;28;20244;-68
2024/02/01 14:01:41;;;;;;;2.57;1.70;;;21.10;54.20;;;;;;5070409;28;20667;-69